.
WxDataArchive / Data Records for 2012-08-16
2012-08-15 August 2012 2012-08-17

Data Records for Thursday, 16 August 2012

Time	Temp	Chill	HIndex	Humid	Dewpt	 Wind 	HiWind	WindDir	Rain 	Barom 
-----	----	-----	------	-----	-----	------	------	-------	-----	----- 
00:00	66.8	66.8	66.8	85	62.1	0	0	---	0.00	29.931 
00:05	66.8	66.8	66.8	86	62.5	0	0	---	0.00	29.931 
00:10	66.6	66.6	66.6	86	62.3	0	0	---	0.00	29.931 
00:15	66.4	66.4	66.4	87	62.4	0	0	---	0.00	29.935 
00:20	66.4	66.4	66.4	87	62.4	0	0	---	0.00	29.935 
00:25	66.3	66.3	66.3	87	62.3	0	0	---	0.00	29.935 
00:30	66.3	66.3	66.3	87	62.3	0	0	---	0.00	29.937 
00:35	66.1	66.1	66.1	88	62.4	0	0	---	0.00	29.937 
00:40	66.0	66.0	66.0	88	62.3	0	0	---	0.00	29.937 
00:45	66.0	66.0	66.0	88	62.3	0	0	---	0.00	29.939 
00:50	65.8	65.8	65.8	88	62.1	0	0	---	0.00	29.939 
00:55	65.8	65.8	65.8	88	62.1	0	0	---	0.00	29.939 
01:00	65.6	65.6	65.6	89	62.3	0	0	---	0.00	29.945 
01:05	65.6	65.6	65.6	89	62.3	0	0	---	0.00	29.945 
01:10	65.5	65.5	65.5	89	62.2	0	0	---	0.00	29.945 
01:15	65.5	65.5	65.5	89	62.2	0	0	---	0.00	29.942 
01:20	65.3	65.3	65.3	89	62.0	0	0	---	0.00	29.942 
01:25	65.3	65.3	65.3	89	62.0	0	0	---	0.00	29.942 
01:30	65.3	65.3	65.3	90	62.3	0	0	---	0.00	29.939 
01:35	65.3	65.3	65.3	90	62.3	0	0	---	0.00	29.939 
01:40	65.2	65.2	65.2	90	62.2	0	0	---	0.00	29.939 
01:45	65.2	65.2	65.2	90	62.2	0	0	---	0.00	29.935 
01:50	65.0	65.0	65.0	90	62.0	0	0	---	0.00	29.935 
01:55	64.8	64.8	64.8	90	61.8	0	0	---	0.00	29.935 
02:00	64.8	64.8	64.8	90	61.8	0	0	---	0.00	29.935 
02:05	64.7	64.7	64.7	90	61.7	0	0	---	0.00	29.935 
02:10	64.7	64.7	64.7	90	61.7	0	0	---	0.00	29.935 
02:15	64.7	64.7	64.7	90	61.7	0	0	---	0.00	29.935 
02:20	64.5	64.5	64.5	90	61.5	0	0	---	0.00	29.935 
02:25	64.3	64.3	64.3	90	61.3	0	0	---	0.00	29.935 
02:30	64.3	64.3	64.3	90	61.3	0	0	---	0.00	29.936 
02:35	64.2	64.2	64.2	91	61.5	0	0	---	0.00	29.936 
02:40	64.2	64.2	64.2	91	61.5	0	0	---	0.00	29.936 
02:45	64.2	64.2	64.2	91	61.5	0	0	---	0.00	29.935 
02:50	64.2	64.2	64.2	91	61.5	0	0	---	0.00	29.935 
02:55	64.2	64.2	64.2	91	61.5	0	0	---	0.00	29.935 
03:00	64.0	64.0	64.0	91	61.3	0	0	---	0.00	29.934 
03:05	63.9	63.9	63.9	91	61.2	0	0	---	0.00	29.934 
03:10	63.9	63.9	63.9	91	61.2	0	0	---	0.00	29.934 
03:15	63.7	63.7	63.7	91	61.0	0	0	---	0.00	29.938 
03:20	63.7	63.7	63.7	91	61.0	0	0	---	0.00	29.938 
03:25	63.5	63.5	63.5	91	60.8	0	0	---	0.00	29.938 
03:30	63.5	63.5	63.5	91	60.8	0	0	---	0.00	29.937 
03:35	63.5	63.5	63.5	91	60.8	0	0	---	0.00	29.937 
03:40	63.5	63.5	63.5	92	61.1	0	0	---	0.00	29.937 
03:45	63.5	63.5	63.5	92	61.1	0	0	---	0.00	29.942 
03:50	63.5	63.5	63.5	92	61.1	0	0	---	0.00	29.942 
03:55	63.5	63.5	63.5	92	61.1	0	0	---	0.00	29.942 
04:00	63.5	63.5	63.5	92	61.1	0	0	---	0.00	29.942 
04:05	63.5	63.5	63.5	92	61.1	0	0	---	0.00	29.942 
04:10	63.5	63.5	63.5	92	61.1	0	0	---	0.00	29.942 
04:15	63.5	63.5	63.5	92	61.1	0	0	---	0.00	29.938 
04:20	63.4	63.4	63.4	92	61.0	0	0	---	0.00	29.938 
04:25	63.4	63.4	63.4	92	61.0	0	0	---	0.00	29.938 
04:30	63.5	63.5	63.5	92	61.1	0	0	---	0.00	29.937 
04:35	63.5	63.5	63.5	91	60.8	0	0	---	0.00	29.937 
04:40	63.7	63.7	63.7	91	61.0	0	1	292	0.00	29.937 
04:45	64.0	64.0	64.0	90	61.0	0	1	292	0.00	29.933 
04:50	64.3	64.3	64.3	89	61.0	0	1	292	0.00	29.933 
04:55	64.7	64.7	64.7	88	61.1	0	1	292	0.00	29.933 
05:00	65.2	65.2	65.2	86	60.9	0	1	292	0.00	29.932 
05:05	65.5	65.5	65.5	84	60.5	0	0	---	0.00	29.932 
05:10	65.8	65.8	65.8	84	60.8	0	1	292	0.00	29.932 
05:15	65.8	65.8	65.8	83	60.5	0	0	---	0.00	29.930 
05:20	65.8	65.8	65.8	82	60.1	0	0	---	0.00	29.930 
05:25	65.8	65.8	65.8	81	59.8	0	0	---	0.00	29.930 
05:30	65.8	65.8	65.8	81	59.8	0	0	---	0.00	29.932 
05:35	65.6	65.6	65.6	81	59.6	0	0	---	0.00	29.932 
05:40	65.6	65.6	65.6	81	59.6	0	0	---	0.00	29.932 
05:45	65.6	65.6	65.6	81	59.6	0	0	---	0.00	29.930 
05:50	65.6	65.6	65.6	81	59.6	0	0	---	0.00	29.930 
05:55	65.5	65.5	65.5	81	59.5	0	0	---	0.00	29.930 
06:00	65.5	65.5	65.5	81	59.5	0	0	---	0.00	29.923 
06:05	65.5	65.5	65.5	81	59.5	0	0	---	0.00	29.923 
06:10	65.5	65.5	65.5	81	59.5	0	0	---	0.00	29.923 
06:15	65.6	65.6	65.6	81	59.6	0	0	---	0.00	29.918 
06:20	65.5	65.5	65.5	81	59.5	0	0	---	0.00	29.918 
06:25	65.5	65.5	65.5	81	59.5	0	0	---	0.00	29.918 
06:30	65.5	65.5	65.5	81	59.5	0	0	---	0.00	29.910 
06:35	65.3	65.3	65.3	81	59.3	0	0	---	0.00	29.910 
06:40	65.2	65.2	65.2	81	59.2	0	0	---	0.00	29.910 
06:45	65.2	65.2	65.2	81	59.2	0	0	---	0.00	29.912 
06:50	65.0	65.0	65.0	81	59.0	0	0	---	0.00	29.912 
06:55	64.8	64.8	64.8	82	59.2	0	0	---	0.00	29.912 
07:00	64.7	64.7	64.7	82	59.1	0	0	---	0.00	29.906 
07:05	64.7	64.7	64.7	82	59.1	0	0	---	0.00	29.906 
07:10	64.7	64.7	64.7	82	59.1	0	0	---	0.00	29.906 
07:15	64.5	64.5	64.5	83	59.2	0	0	---	0.00	29.905 
07:20	64.5	64.5	64.5	83	59.2	0	1	292	0.00	29.905 
07:25	64.5	64.5	64.5	83	59.2	0	0	---	0.00	29.905 
07:30	64.7	64.7	64.7	83	59.4	0	0	---	0.00	29.897 
07:35	64.7	64.7	64.7	83	59.4	0	0	---	0.00	29.897 
07:40	64.8	64.8	64.8	83	59.5	0	0	---	0.00	29.897 
07:45	65.2	65.2	65.2	83	59.9	0	0	---	0.00	29.891 
07:50	65.5	65.5	65.5	83	60.2	0	0	---	0.00	29.891 
07:55	66.1	66.1	66.1	81	60.1	0	0	---	0.00	29.891 
08:00	66.8	66.8	66.8	80	60.4	0	2	292	0.00	29.892 
08:05	67.3	67.3	67.3	79	60.6	0	1	292	0.00	29.892 
08:10	67.8	67.8	67.8	77	60.3	0	2	292	0.00	29.892 
08:15	68.4	68.4	68.4	76	60.5	0	1	292	0.00	29.904 
08:20	69.1	69.1	69.1	75	60.8	0	1	292	0.00	29.904 
08:25	69.8	69.8	69.8	73	60.7	0	1	292	0.00	29.904 
08:30	70.3	70.3	70.3	73	61.2	0	1	292	0.00	29.913 
08:35	70.4	70.4	70.4	72	60.9	0	1	292	0.00	29.913 
08:40	70.3	70.3	70.3	71	60.4	0	2	292	0.00	29.913 
08:45	70.3	70.3	70.3	71	60.4	0	1	292	0.00	29.922 
08:50	70.3	70.3	70.3	72	60.8	0	1	292	0.00	29.922 
08:55	70.4	70.4	70.4	72	60.9	0	2	292	0.00	29.922 
09:00	70.8	70.8	70.8	70	60.5	0	1	292	0.00	29.937 
09:05	71.1	71.1	71.1	69	60.4	0	2	292	0.00	29.937 
09:10	71.5	71.5	71.5	67	60.0	0	2	248	0.00	29.937 
09:15	71.8	71.8	71.8	67	60.2	0	2	248	0.00	29.933 
09:20	72.0	72.0	72.0	66	60.0	0	1	248	0.00	29.933 
09:25	72.1	72.1	72.1	67	60.5	0	1	248	0.00	29.933 
09:30	72.1	72.1	72.1	66	60.1	0	3	225	0.00	29.920 
09:35	72.3	72.3	72.3	66	60.3	0	2	225	0.00	29.920 
09:40	72.5	72.5	72.5	66	60.5	0	2	68	0.00	29.920 
09:45	73.2	73.2	73.2	66	61.1	0	3	338	0.00	29.915 
09:50	73.5	73.5	73.5	64	60.6	1	3	248	0.00	29.915 
09:55	73.9	73.9	73.9	64	60.9	0	2	248	0.00	29.915 
10:00	74.2	74.2	74.2	63	60.8	1	3	315	0.00	29.909 
10:05	74.6	74.6	74.6	62	60.7	1	3	315	0.00	29.909 
10:10	74.9	74.9	74.9	62	61.0	0	3	0	0.00	29.909 
10:15	75.3	75.3	77.5	60	60.4	1	4	225	0.00	29.902 
10:20	75.8	75.8	77.8	61	61.4	0	2	270	0.00	29.902 
10:25	76.1	76.1	78.0	62	62.1	0	2	315	0.00	29.902 
10:30	76.7	76.7	78.5	58	60.8	1	4	270	0.00	29.888 
10:35	76.8	76.8	78.6	58	60.9	1	3	292	0.00	29.888 
10:40	77.2	77.2	78.9	57	60.8	1	3	248	0.00	29.888 
10:45	77.4	77.4	79.1	57	61.0	1	3	248	0.00	29.893 
10:50	77.6	77.6	79.2	57	61.1	1	3	248	0.00	29.893 
10:55	77.7	77.7	79.2	55	60.2	2	4	248	0.00	29.893 
11:00	77.7	77.7	79.3	56	60.7	1	4	248	0.00	29.907 
11:05	77.9	77.9	79.4	56	60.9	1	5	248	0.00	29.907 
11:10	77.9	77.9	79.5	57	61.4	1	4	270	0.00	29.907 
11:15	77.9	77.9	79.5	57	61.4	1	5	270	0.00	29.894 
11:20	77.7	77.7	79.3	58	61.7	1	3	248	0.00	29.894 
11:25	77.7	77.7	79.3	57	61.2	1	3	248	0.00	29.894 
11:30	77.9	77.9	79.4	56	60.9	1	6	338	0.00	29.903 
11:35	77.9	77.9	79.5	58	61.9	1	6	248	0.00	29.903 
11:40	77.7	77.7	79.3	57	61.2	1	6	248	0.00	29.903 
11:45	77.7	77.7	79.3	56	60.7	1	5	338	0.00	29.906 
11:50	77.7	77.7	79.3	57	61.2	1	5	270	0.00	29.906 
11:55	77.7	77.7	79.3	58	61.7	1	4	270	0.00	29.906 
12:00	77.6	77.6	79.2	58	61.6	1	3	270	0.00	29.912 
12:05	77.6	77.6	79.2	58	61.6	1	3	270	0.00	29.912 
12:10	77.4	77.4	79.1	59	61.9	1	3	22	0.00	29.912 
12:15	77.2	77.2	78.9	59	61.7	1	4	248	0.00	29.914 
12:20	77.0	77.0	78.8	60	62.0	1	2	248	0.00	29.914 
12:25	76.8	76.8	78.6	60	61.8	1	3	225	0.00	29.914 
12:30	76.8	76.8	78.6	60	61.8	1	3	248	0.00	29.913 
12:35	76.7	76.7	78.5	58	60.8	2	6	270	0.00	29.913 
12:40	76.7	76.7	78.5	57	60.3	2	5	270	0.00	29.913 
12:45	76.7	76.7	78.5	57	60.3	2	5	248	0.00	29.946 
12:50	76.5	76.5	78.4	58	60.6	2	5	270	0.00	29.946 
12:55	76.5	76.5	78.4	58	60.6	3	7	270	0.00	29.946 
13:00	76.5	76.5	78.4	59	61.1	2	6	248	0.00	29.938 
13:05	76.5	76.5	78.4	59	61.1	2	5	248	0.00	29.938 
13:10	76.3	76.3	78.2	60	61.4	2	5	270	0.00	29.938 
13:15	75.8	75.8	77.8	61	61.4	3	7	270	0.00	29.922 
13:20	75.3	75.3	77.4	64	62.3	2	6	270	0.00	29.922 
13:25	74.2	74.2	74.2	68	62.9	2	4	248	0.00	29.922 
13:30	72.8	72.8	72.8	73	63.6	2	5	270	0.01	29.940 
13:35	71.8	71.8	71.8	78	64.6	1	3	270	0.01	29.940 
13:40	70.8	70.8	70.8	81	64.7	0	3	270	0.01	29.940 
13:45	69.9	69.9	69.9	83	64.5	0	1	270	0.02	29.927 
13:50	69.3	69.3	69.3	84	64.2	0	1	270	0.01	29.927 
13:55	68.9	68.9	68.9	86	64.5	0	2	270	0.01	29.927 
14:00	68.8	68.8	68.8	87	64.8	0	1	270	0.01	29.895 
14:05	68.4	68.4	68.4	88	64.7	1	5	270	0.00	29.895 
14:10	68.3	68.3	68.3	88	64.6	2	4	112	0.01	29.895 
14:15	67.9	67.9	67.9	89	64.5	1	5	112	0.00	29.848 
14:20	67.8	67.8	67.8	89	64.4	1	4	90	0.00	29.848 
14:25	67.9	67.9	67.9	90	64.9	0	2	68	0.00	29.848 
14:30	68.1	68.1	68.1	90	65.0	1	3	315	0.00	29.853 
14:35	68.4	68.4	68.4	91	65.7	0	3	315	0.00	29.853 
14:40	68.6	68.6	68.6	90	65.5	1	5	90	0.00	29.853 
14:45	68.9	68.9	68.9	90	65.8	1	2	90	0.00	29.836 
14:50	69.3	69.3	69.3	90	66.2	0	2	112	0.00	29.836 
14:55	69.6	69.6	69.6	89	66.2	1	3	68	0.00	29.836 
15:00	69.4	69.4	69.4	88	65.7	1	4	270	0.00	29.848 
15:05	69.4	69.4	69.4	87	65.4	1	3	45	0.00	29.848 
15:10	69.4	69.4	69.4	86	65.0	1	4	248	0.00	29.848 
15:15	69.9	69.9	69.9	86	65.5	0	2	248	0.00	29.843 
15:20	70.1	70.1	70.1	86	65.7	0	1	248	0.00	29.843 
15:25	70.3	70.3	70.3	85	65.6	0	2	248	0.00	29.843 
15:30	70.6	70.6	70.6	84	65.5	0	2	248	0.00	29.834 
15:35	70.8	70.8	70.8	83	65.4	0	3	248	0.00	29.834 
15:40	71.1	71.1	71.1	83	65.7	0	1	292	0.00	29.834 
15:45	71.3	71.3	71.3	82	65.5	0	3	292	0.00	29.832 
15:50	71.5	71.5	71.5	81	65.4	0	2	292	0.00	29.832 
15:55	71.5	71.5	71.5	79	64.6	1	3	225	0.00	29.832 
16:00	71.6	71.6	71.6	80	65.1	0	1	225	0.00	29.816 
16:05	71.6	71.6	71.6	79	64.7	0	2	180	0.00	29.816 
16:10	71.6	71.6	71.6	78	64.4	0	3	225	0.00	29.816 
16:15	71.6	71.6	71.6	78	64.4	0	2	225	0.00	29.814 
16:20	71.6	71.6	71.6	77	64.0	0	2	225	0.00	29.814 
16:25	71.5	71.5	71.5	77	63.9	1	2	225	0.00	29.814 
16:30	71.5	71.5	71.5	78	64.3	0	1	248	0.00	29.816 
16:35	71.5	71.5	71.5	77	63.9	0	1	248	0.00	29.816 
16:40	71.5	71.5	71.5	78	64.3	0	1	248	0.00	29.816 
16:45	71.5	71.5	71.5	78	64.3	0	1	248	0.00	29.799 
16:50	71.3	71.3	71.3	78	64.1	0	1	248	0.00	29.799 
16:55	71.3	71.3	71.3	78	64.1	0	0	---	0.00	29.799 
17:00	71.3	71.3	71.3	78	64.1	0	1	248	0.00	29.813 
17:05	71.1	71.1	71.1	77	63.5	0	1	248	0.00	29.813 
17:10	71.1	71.1	71.1	78	63.9	0	1	248	0.00	29.813 
17:15	71.1	71.1	71.1	78	63.9	0	0	---	0.00	29.812 
17:20	71.1	71.1	71.1	78	63.9	0	1	248	0.00	29.812 
17:25	70.9	70.9	70.9	78	63.7	0	1	248	0.00	29.812 
17:30	70.9	70.9	70.9	78	63.7	0	1	248	0.00	29.816 
17:35	70.9	70.9	70.9	77	63.3	0	1	248	0.00	29.816 
17:40	70.9	70.9	70.9	77	63.3	0	3	248	0.00	29.816 
17:45	70.9	70.9	70.9	76	62.9	1	3	248	0.00	29.816 
17:50	70.9	70.9	70.9	75	62.6	2	5	315	0.00	29.816 
17:55	70.9	70.9	70.9	75	62.6	3	4	270	0.00	29.816 
18:00	70.9	70.9	70.9	76	62.9	3	5	270	0.00	29.830 
18:05	70.6	70.6	70.6	76	62.7	3	6	270	0.00	29.830 
18:10	70.4	70.4	70.4	77	62.8	1	4	270	0.00	29.830 
18:15	70.3	70.3	70.3	77	62.7	0	2	270	0.00	29.810 
18:20	70.1	70.1	70.1	77	62.5	1	3	270	0.00	29.810 
18:25	70.1	70.1	70.1	78	62.9	1	3	270	0.00	29.810 
18:30	69.9	69.9	69.9	78	62.7	1	3	270	0.00	29.802 
18:35	69.9	69.9	69.9	78	62.7	1	4	270	0.00	29.802 
18:40	69.8	69.8	69.8	79	63.0	0	2	270	0.00	29.802 
18:45	69.8	69.8	69.8	79	63.0	1	3	270	0.00	29.787 
18:50	69.6	69.6	69.6	79	62.8	1	3	270	0.00	29.787 
18:55	69.6	69.6	69.6	79	62.8	0	3	270	0.00	29.787 
19:00	69.6	69.6	69.6	80	63.1	0	2	270	0.00	29.776 
19:05	69.4	69.4	69.4	80	63.0	0	2	270	0.00	29.776 
19:10	69.4	69.4	69.4	80	63.0	0	2	270	0.00	29.776 
19:15	69.3	69.3	69.3	81	63.2	0	2	270	0.00	29.784 
19:20	69.1	69.1	69.1	81	63.0	1	2	270	0.00	29.784 
19:25	69.1	69.1	69.1	81	63.0	1	3	270	0.00	29.784 
19:30	69.1	69.1	69.1	81	63.0	1	3	270	0.00	29.819 
19:35	69.1	69.1	69.1	81	63.0	1	4	270	0.00	29.819 
19:40	69.1	69.1	69.1	81	63.0	1	4	292	0.00	29.819 
19:45	68.9	68.9	68.9	81	62.8	1	3	292	0.00	29.807 
19:50	68.9	68.9	68.9	82	63.2	0	2	292	0.00	29.807 
19:55	68.9	68.9	68.9	82	63.2	0	2	292	0.00	29.807 
20:00	68.8	68.8	68.8	82	63.1	0	2	292	0.00	29.803 
20:05	68.8	68.8	68.8	82	63.1	0	2	292	0.00	29.803 
20:10	68.6	68.6	68.6	83	63.2	0	3	292	0.00	29.803 
20:15	68.6	68.6	68.6	83	63.2	0	2	292	0.00	29.796 
20:20	68.4	68.4	68.4	83	63.0	0	2	292	0.00	29.796 
20:25	68.4	68.4	68.4	83	63.0	0	2	292	0.00	29.796 
20:30	68.3	68.3	68.3	84	63.3	0	1	292	0.00	29.800 
20:35	68.3	68.3	68.3	84	63.3	0	1	292	0.00	29.800 
20:40	68.3	68.3	68.3	84	63.3	1	3	292	0.00	29.800 
20:45	68.1	68.1	68.1	84	63.1	0	1	292	0.00	29.813 
20:50	68.1	68.1	68.1	84	63.1	0	3	292	0.00	29.813 
20:55	68.1	68.1	68.1	84	63.1	0	1	292	0.00	29.813 
21:00	67.9	67.9	67.9	84	62.9	0	1	292	0.00	29.813 
21:05	67.9	67.9	67.9	85	63.2	0	2	292	0.00	29.813 
21:10	67.9	67.9	67.9	85	63.2	1	2	292	0.00	29.813 
21:15	67.9	67.9	67.9	85	63.2	1	3	292	0.00	29.808 
21:20	67.9	67.9	67.9	84	62.9	1	4	270	0.00	29.808 
21:25	67.9	67.9	67.9	84	62.9	0	2	270	0.00	29.808 
21:30	68.1	68.1	68.1	84	63.1	1	2	270	0.00	29.810 
21:35	68.1	68.1	68.1	84	63.1	0	2	270	0.00	29.810 
21:40	68.1	68.1	68.1	84	63.1	1	3	270	0.00	29.810 
21:45	68.3	68.3	68.3	84	63.3	0	2	270	0.00	29.826 
21:50	68.3	68.3	68.3	84	63.3	1	2	270	0.00	29.826 
21:55	68.4	68.4	68.4	83	63.0	1	3	270	0.00	29.826 
22:00	68.4	68.4	68.4	83	63.0	1	3	270	0.00	29.841 
22:05	68.4	68.4	68.4	83	63.0	1	4	270	0.00	29.841 
22:10	68.4	68.4	68.4	83	63.0	1	3	270	0.00	29.841 
22:15	68.4	68.4	68.4	83	63.0	1	3	270	0.00	29.838 
22:20	68.6	68.6	68.6	82	62.9	1	3	270	0.00	29.838 
22:25	68.6	68.6	68.6	82	62.9	1	3	270	0.00	29.838 
22:30	68.6	68.6	68.6	82	62.9	1	3	270	0.00	29.839 
22:35	68.6	68.6	68.6	82	62.9	2	4	270	0.00	29.839 
22:40	68.6	68.6	68.6	82	62.9	1	4	270	0.00	29.839 
22:45	68.8	68.8	68.8	82	63.1	2	4	270	0.00	29.840 
22:50	68.8	68.8	68.8	81	62.7	2	4	315	0.00	29.840 
22:55	68.9	68.9	68.9	81	62.8	2	4	292	0.00	29.840 
23:00	68.9	68.9	68.9	81	62.8	3	7	270	0.00	29.841 
23:05	68.9	68.9	68.9	81	62.8	3	5	270	0.00	29.841 
23:10	68.9	68.9	68.9	81	62.8	2	5	292	0.00	29.841 
23:15	68.9	68.9	68.9	81	62.8	3	6	270	0.00	29.839 
23:20	69.1	69.1	69.1	81	63.0	3	7	270	0.00	29.839 
23:25	69.3	69.3	69.3	81	63.2	3	7	270	0.00	29.839 
23:30	69.3	69.3	69.3	81	63.2	3	5	292	0.00	29.838 
23:35	69.3	69.3	69.3	81	63.2	4	7	270	0.00	29.838 
23:40	69.3	69.3	69.3	81	63.2	4	9	270	0.00	29.838 
23:45	69.3	69.3	69.3	81	63.2	3	7	270	0.00	29.839 
23:50	69.3	69.3	69.3	81	63.2	3	9	292	0.00	29.839 
23:55	69.3	69.3	69.3	81	63.2	3	7	270	0.00	29.839 

CoCoRaHS
IN-AL-39
A2 Web Hosting
Creative Commons License
GoDaddy
search engine by freefind advanced

loaded 2018-11-13 21:13:20 • last modified 2010-11-18 10:43:29
Privacy PolicyDisclaimer
• wx.awcolley.com is powered by PmWiki v.2002016 •
• all content (unless otherwise noted) © 2018 A W Colley